Brainerd, Minnesota
Current Conditions -  °F | °C
As of 11:53 PM on Wednesday 22 Oct 2014 (Local Time) from KBRD Reporting Station
Overcast Overcast  
Wind Chill: 53°   Ceiling: 2500
Heat Index: 53°   Visibility: 10mi
Dew Point: 44°   Wind: 14mph
Humidity: 71%   Direction: 180°S
Pressure: 29.96"   Gusts: NA
Location:  46.35°N, 94.2°W
Report Text: KBRD 230453Z AUTO 18012KT 10SM OVC025 12/07 A2996 RMK AO2 PK WND 18027/0400 SLP149 T01170067
Loading
Personal Weather Stations






























Interactive Weather Map New forecast layout! Learn more

10-Day Weather Forecast

Advertisements
Track Severe Weather on mobile